Time;durP1;ratioP1;P1;durP2;ratioP2;P2;SDS_P1;SDS_P2;PMS_P1;PMS_P2;Temp;Humidity;BMP_temperature;BMP_pressure;BME280_temperature;BME280_humidity;BME280_pressure;Samples;Min_cycle;Max_cycle;Signal;HPM_P1;HPM_P2
2022/12/13 00:02:19;;;;;;;0.70;0.70;;;;;;;;;;5064950;28;20305;-81
2022/12/13 00:08:33;;;;;;;0.60;0.60;;;;;;;;;;5052178;28;20204;-83
2022/12/13 00:11:02;;;;;;;0.70;0.70;;;;;;;;;;5043364;28;20722;-84
2022/12/13 00:13:28;;;;;;;1.00;1.00;;;;;;;;;;5033475;28;20201;-83
2022/12/13 00:15:55;;;;;;;0.70;0.70;;;;;;;;;;5049839;28;20646;-83
2022/12/13 00:18:23;;;;;;;0.70;0.70;;;;;;;;;;5028581;28;20645;-84
2022/12/13 00:20:49;;;;;;;0.60;0.60;;;;;;;;;;5051551;28;20657;-82
2022/12/13 00:23:17;;;;;;;0.70;0.70;;;;;;;;;;5056436;28;20162;-83
2022/12/13 00:25:43;;;;;;;0.88;0.88;;;;;;;;;;5053770;28;20194;-84
2022/12/13 00:28:11;;;;;;;0.75;0.75;;;;;;;;;;5054223;28;20262;-83
2022/12/13 00:30:39;;;;;;;0.80;0.80;;;;;;;;;;5053589;28;20296;-85
2022/12/13 00:33:05;;;;;;;0.70;0.70;;;;;;;;;;5038581;28;20551;-85
2022/12/13 00:35:32;;;;;;;0.70;0.70;;;;;;;;;;5053194;28;20284;-84
2022/12/13 00:37:59;;;;;;;0.80;0.80;;;;;;;;;;5055122;28;20288;-86
2022/12/13 00:40:52;;;;;;;0.70;0.70;;;;;;;;;;5053186;28;20186;-84
2022/12/13 00:43:21;;;;;;;0.88;0.88;;;;;;;;;;5044931;28;20181;-82
2022/12/13 00:45:57;;;;;;;0.65;0.65;;;;;;;;;;5052789;28;20184;-83
2022/12/13 00:48:24;;;;;;;1.00;1.00;;;;;;;;;;5017819;28;20316;-83
2022/12/13 00:51:17;;;;;;;0.90;0.90;;;;;;;;;;5052936;28;20201;-83
2022/12/13 00:54:05;;;;;;;0.60;0.60;;;;;;;;;;5036817;28;20213;-84
2022/12/13 00:56:32;;;;;;;0.70;0.70;;;;;;;;;;5035549;28;20559;-85
2022/12/13 00:59:14;;;;;;;0.80;0.80;;;;;;;;;;5037827;28;20186;-83
2022/12/13 01:01:40;;;;;;;1.30;1.20;;;;;;;;;;5035548;28;20201;-85
2022/12/13 01:04:48;;;;;;;0.70;0.70;;;;;;;;;;5041799;28;20297;-85
2022/12/13 01:07:14;;;;;;;0.80;0.80;;;;;;;;;;5035663;28;20280;-83
2022/12/13 01:09:41;;;;;;;0.70;0.70;;;;;;;;;;5044876;28;20201;-84
2022/12/13 01:12:10;;;;;;;0.80;0.80;;;;;;;;;;5037185;28;20198;-84
2022/12/13 01:14:39;;;;;;;0.90;0.90;;;;;;;;;;5055885;28;20587;-83
2022/12/13 01:17:06;;;;;;;0.73;0.73;;;;;;;;;;5042456;28;20657;-84
2022/12/13 01:19:33;;;;;;;0.70;0.70;;;;;;;;;;5035385;28;20217;-82
2022/12/13 01:22:01;;;;;;;0.57;0.55;;;;;;;;;;5037128;28;20193;-83
2022/12/13 01:24:30;;;;;;;0.70;0.70;;;;;;;;;;5054397;28;20190;-84
2022/12/13 01:26:57;;;;;;;0.77;0.77;;;;;;;;;;5036722;28;20272;-82
2022/12/13 01:29:24;;;;;;;0.70;0.70;;;;;;;;;;5053175;28;20202;-84
2022/12/13 01:31:54;;;;;;;0.70;0.70;;;;;;;;;;5067087;28;20268;-84
2022/12/13 01:34:21;;;;;;;0.65;0.65;;;;;;;;;;5034672;28;20576;-82
2022/12/13 01:36:52;;;;;;;1.25;1.15;;;;;;;;;;5043587;28;20254;-83
2022/12/13 01:39:24;;;;;;;0.60;0.60;;;;;;;;;;5053412;28;20289;-83
2022/12/13 01:41:58;;;;;;;0.88;0.88;;;;;;;;;;5034596;28;20248;-84
2022/12/13 01:44:44;;;;;;;0.60;0.60;;;;;;;;;;5035238;28;20190;-84
2022/12/13 01:47:14;;;;;;;0.70;0.70;;;;;;;;;;5044577;28;20217;-83
2022/12/13 01:49:41;;;;;;;0.82;0.82;;;;;;;;;;5050872;28;20182;-82
2022/12/13 01:52:11;;;;;;;0.60;0.60;;;;;;;;;;5070451;28;20622;-83
2022/12/13 01:54:39;;;;;;;0.60;0.60;;;;;;;;;;5051376;28;20232;-84
2022/12/13 01:57:14;;;;;;;0.65;0.65;;;;;;;;;;5037929;28;20192;-83
2022/12/13 01:59:43;;;;;;;1.05;1.05;;;;;;;;;;5051733;28;20227;-84
2022/12/13 02:02:11;;;;;;;0.70;0.70;;;;;;;;;;5033544;28;20194;-84
2022/12/13 02:04:43;;;;;;;0.70;0.70;;;;;;;;;;5037891;28;20196;-83
2022/12/13 02:07:11;;;;;;;0.80;0.80;;;;;;;;;;5052503;28;20537;-84
2022/12/13 02:09:38;;;;;;;0.70;0.70;;;;;;;;;;5050369;28;20276;-83
2022/12/13 02:12:07;;;;;;;0.70;0.70;;;;;;;;;;5032959;28;20544;-85
2022/12/13 02:14:39;;;;;;;1.00;1.00;;;;;;;;;;5043468;28;20196;-84
2022/12/13 02:17:12;;;;;;;0.98;0.98;;;;;;;;;;5049835;28;20197;-84
2022/12/13 02:20:11;;;;;;;0.70;0.70;;;;;;;;;;5052265;28;20231;-83
2022/12/13 02:22:56;;;;;;;0.80;0.80;;;;;;;;;;5033976;28;20194;-84
2022/12/13 02:25:35;;;;;;;0.70;0.70;;;;;;;;;;5069706;28;20275;-83
2022/12/13 02:28:10;;;;;;;0.80;0.80;;;;;;;;;;5053607;28;20600;-83
2022/12/13 02:31:03;;;;;;;0.60;0.60;;;;;;;;;;5038364;28;20209;-83
2022/12/13 02:33:39;;;;;;;0.77;0.77;;;;;;;;;;5051823;28;20213;-84
2022/12/13 02:36:13;;;;;;;0.68;0.68;;;;;;;;;;5052619;28;20189;-85
2022/12/13 02:38:51;;;;;;;0.80;0.80;;;;;;;;;;5036917;28;20243;-85
2022/12/13 02:41:26;;;;;;;0.60;0.60;;;;;;;;;;5048263;28;20173;-84
2022/12/13 02:44:01;;;;;;;0.70;0.70;;;;;;;;;;5033498;28;20174;-83
2022/12/13 02:46:34;;;;;;;1.05;1.05;;;;;;;;;;5041211;28;20239;-83
2022/12/13 02:49:06;;;;;;;0.73;0.73;;;;;;;;;;5038144;28;20213;-83
2022/12/13 02:51:37;;;;;;;0.80;0.80;;;;;;;;;;5032151;28;20598;-84
2022/12/13 02:54:06;;;;;;;1.80;1.70;;;;;;;;;;5046154;28;20235;-82
2022/12/13 02:56:36;;;;;;;0.70;0.70;;;;;;;;;;5035676;28;20259;-82
2022/12/13 02:59:08;;;;;;;1.08;1.08;;;;;;;;;;5052001;28;20248;-82
2022/12/13 03:01:44;;;;;;;0.80;0.80;;;;;;;;;;5052265;28;20193;-81
2022/12/13 03:04:17;;;;;;;0.80;0.80;;;;;;;;;;5035352;28;20217;-81
2022/12/13 03:06:57;;;;;;;0.80;0.80;;;;;;;;;;5052295;28;20527;-82
2022/12/13 03:09:33;;;;;;;0.73;0.73;;;;;;;;;;5052452;28;20204;-81
2022/12/13 03:15:02;;;;;;;1.00;1.00;;;;;;;;;;5033625;28;20205;-81
2022/12/13 03:17:35;;;;;;;0.77;0.77;;;;;;;;;;5050296;28;20213;-82
2022/12/13 03:20:05;;;;;;;0.90;0.90;;;;;;;;;;5052079;28;20560;-80
2022/12/13 03:22:52;;;;;;;0.70;0.70;;;;;;;;;;5050167;28;20505;-81
2022/12/13 03:25:27;;;;;;;0.90;0.90;;;;;;;;;;5048454;28;20293;-80
2022/12/13 03:28:03;;;;;;;1.23;1.17;;;;;;;;;;5063566;28;20232;-80
2022/12/13 03:30:34;;;;;;;0.65;0.60;;;;;;;;;;5049967;28;20188;-82
2022/12/13 03:33:06;;;;;;;0.98;0.98;;;;;;;;;;5039338;28;20221;-80
2022/12/13 03:35:36;;;;;;;0.70;0.70;;;;;;;;;;5032688;28;20677;-81
2022/12/13 03:38:14;;;;;;;0.70;0.70;;;;;;;;;;5051391;28;20578;-82
2022/12/13 03:40:52;;;;;;;0.80;0.80;;;;;;;;;;5052091;28;20193;-84
2022/12/13 03:43:21;;;;;;;1.35;1.35;;;;;;;;;;5040836;28;20650;-82
2022/12/13 03:45:52;;;;;;;0.70;0.70;;;;;;;;;;5030656;28;20187;-81
2022/12/13 03:48:23;;;;;;;0.80;0.80;;;;;;;;;;5049146;28;20232;-83
2022/12/13 03:50:52;;;;;;;0.90;0.90;;;;;;;;;;5034555;28;20209;-83
2022/12/13 03:53:24;;;;;;;0.63;0.60;;;;;;;;;;5051318;28;20277;-83
2022/12/13 03:56:01;;;;;;;0.90;0.90;;;;;;;;;;5050679;28;20182;-83
2022/12/13 03:58:28;;;;;;;0.70;0.70;;;;;;;;;;5057066;28;20616;-83
2022/12/13 04:01:02;;;;;;;0.90;0.90;;;;;;;;;;5054930;28;20228;-82
2022/12/13 04:03:30;;;;;;;0.70;0.70;;;;;;;;;;5055482;28;20210;-83
2022/12/13 04:05:57;;;;;;;0.70;0.60;;;;;;;;;;5052159;28;20198;-81
2022/12/13 04:08:23;;;;;;;0.60;0.60;;;;;;;;;;5053656;28;20198;-83
2022/12/13 04:10:50;;;;;;;0.70;0.70;;;;;;;;;;5052353;28;20201;-81
2022/12/13 04:13:32;;;;;;;0.70;0.70;;;;;;;;;;5054628;28;20174;-83
2022/12/13 04:15:59;;;;;;;0.75;0.75;;;;;;;;;;5039589;28;20648;-82
2022/12/13 04:18:26;;;;;;;0.60;0.60;;;;;;;;;;5055291;28;20209;-83
2022/12/13 04:20:56;;;;;;;0.75;0.75;;;;;;;;;;5054751;28;20170;-82
2022/12/13 04:23:23;;;;;;;0.60;0.60;;;;;;;;;;5058057;28;20193;-83
2022/12/13 04:25:50;;;;;;;0.82;0.82;;;;;;;;;;5042375;28;20198;-83
2022/12/13 04:28:16;;;;;;;0.70;0.70;;;;;;;;;;5036996;28;20252;-83
2022/12/13 04:30:49;;;;;;;0.80;0.80;;;;;;;;;;5046040;28;20688;-82
2022/12/13 04:33:20;;;;;;;0.60;0.60;;;;;;;;;;5056334;28;20300;-83
2022/12/13 04:35:46;;;;;;;0.70;0.70;;;;;;;;;;5055621;28;20597;-83
2022/12/13 04:38:14;;;;;;;0.80;0.80;;;;;;;;;;5055977;28;20665;-83
2022/12/13 04:40:41;;;;;;;0.75;0.75;;;;;;;;;;5054291;28;20727;-82
2022/12/13 04:43:08;;;;;;;0.88;0.88;;;;;;;;;;5027343;28;20194;-83
2022/12/13 04:45:34;;;;;;;2.45;2.35;;;;;;;;;;5056584;28;20541;-85
2022/12/13 04:48:01;;;;;;;1.02;1.02;;;;;;;;;;5036378;28;20606;-83
2022/12/13 04:50:28;;;;;;;0.93;0.93;;;;;;;;;;5037661;28;20193;-82
2022/12/13 04:52:55;;;;;;;0.88;0.88;;;;;;;;;;5036643;28;20209;-83
2022/12/13 04:55:23;;;;;;;0.80;0.80;;;;;;;;;;5055917;28;20174;-83
2022/12/13 04:57:50;;;;;;;0.80;0.80;;;;;;;;;;5057085;28;20189;-84
2022/12/13 05:00:17;;;;;;;1.00;1.00;;;;;;;;;;5057757;28;20193;-82
2022/12/13 05:02:43;;;;;;;0.90;0.90;;;;;;;;;;5020946;28;20861;-80
2022/12/13 05:05:12;;;;;;;0.70;0.70;;;;;;;;;;5043362;28;20235;-82
2022/12/13 05:07:39;;;;;;;0.70;0.63;;;;;;;;;;5054377;28;20193;-82
2022/12/13 05:10:08;;;;;;;0.65;0.65;;;;;;;;;;5053712;28;20197;-80
2022/12/13 05:12:36;;;;;;;1.13;1.02;;;;;;;;;;5032396;28;20661;-81
2022/12/13 05:15:04;;;;;;;0.75;0.75;;;;;;;;;;5047240;28;20222;-81
2022/12/13 05:17:30;;;;;;;0.80;0.80;;;;;;;;;;5049842;28;20564;-82
2022/12/13 05:20:00;;;;;;;0.70;0.70;;;;;;;;;;5056240;28;20563;-82
2022/12/13 05:22:27;;;;;;;0.80;0.80;;;;;;;;;;5048594;28;20240;-81
2022/12/13 05:24:54;;;;;;;0.70;0.70;;;;;;;;;;5048821;28;20198;-81
2022/12/13 05:27:21;;;;;;;0.80;0.80;;;;;;;;;;5033966;28;20600;-81
2022/12/13 05:29:52;;;;;;;0.88;0.88;;;;;;;;;;5033116;28;20194;-81
2022/12/13 05:32:32;;;;;;;0.80;0.80;;;;;;;;;;5049448;28;20209;-80
2022/12/13 05:35:09;;;;;;;0.70;0.70;;;;;;;;;;5052541;28;20686;-80
2022/12/13 05:37:36;;;;;;;0.80;0.80;;;;;;;;;;5053362;28;20206;-80
2022/12/13 05:40:04;;;;;;;0.80;0.80;;;;;;;;;;5053936;28;20483;-80
2022/12/13 05:42:31;;;;;;;2.35;2.25;;;;;;;;;;5031085;28;20209;-80
2022/12/13 05:44:59;;;;;;;0.70;0.70;;;;;;;;;;5047946;28;20281;-80
2022/12/13 05:47:26;;;;;;;0.93;0.93;;;;;;;;;;5049611;28;20233;-81
2022/12/13 05:49:52;;;;;;;1.10;1.10;;;;;;;;;;5036811;28;20259;-80
2022/12/13 05:52:21;;;;;;;1.42;1.33;;;;;;;;;;5052505;28;20302;-80
2022/12/13 05:54:57;;;;;;;0.80;0.80;;;;;;;;;;5043919;28;20274;-80
2022/12/13 05:57:39;;;;;;;0.82;0.82;;;;;;;;;;5048217;28;20206;-78
2022/12/13 06:00:09;;;;;;;0.80;0.80;;;;;;;;;;5052519;28;20269;-81
2022/12/13 06:02:59;;;;;;;0.80;0.80;;;;;;;;;;5053182;28;20729;-80
2022/12/13 06:05:28;;;;;;;0.70;0.70;;;;;;;;;;5052728;28;20193;-81
2022/12/13 06:07:55;;;;;;;0.70;0.70;;;;;;;;;;5053153;28;20684;-81
2022/12/13 06:10:23;;;;;;;0.70;0.70;;;;;;;;;;5053818;28;20225;-82
2022/12/13 06:13:00;;;;;;;0.90;0.90;;;;;;;;;;5049624;28;20247;-81
2022/12/13 06:15:49;;;;;;;0.90;0.90;;;;;;;;;;5052721;28;20211;-81
2022/12/13 06:18:16;;;;;;;0.80;0.80;;;;;;;;;;5052565;28;20698;-82
2022/12/13 06:20:43;;;;;;;0.80;0.80;;;;;;;;;;5053544;28;20247;-81
2022/12/13 06:23:10;;;;;;;1.08;1.08;;;;;;;;;;5052625;28;20201;-82
2022/12/13 06:25:37;;;;;;;0.90;0.90;;;;;;;;;;5053301;28;20637;-83
2022/12/13 06:28:04;;;;;;;0.85;0.85;;;;;;;;;;5047224;28;20778;-80
2022/12/13 06:30:31;;;;;;;0.88;0.88;;;;;;;;;;5045580;28;20219;-80
2022/12/13 06:33:02;;;;;;;0.80;0.80;;;;;;;;;;5036269;28;20240;-81
2022/12/13 06:35:29;;;;;;;0.90;0.90;;;;;;;;;;5043835;28;20198;-81
2022/12/13 06:38:00;;;;;;;0.90;0.90;;;;;;;;;;5050490;28;20233;-81
2022/12/13 06:40:29;;;;;;;1.20;1.10;;;;;;;;;;5052847;28;20317;-79
2022/12/13 06:42:56;;;;;;;0.73;0.73;;;;;;;;;;5040390;28;20194;-81
2022/12/13 06:45:23;;;;;;;0.70;0.65;;;;;;;;;;5051128;28;20252;-82
2022/12/13 06:47:50;;;;;;;0.80;0.80;;;;;;;;;;5053004;28;20252;-80
2022/12/13 06:50:19;;;;;;;0.82;0.82;;;;;;;;;;5045864;28;20248;-79
2022/12/13 06:52:46;;;;;;;0.60;0.60;;;;;;;;;;5051665;28;20207;-80
2022/12/13 06:55:35;;;;;;;0.88;0.88;;;;;;;;;;5045099;28;20271;-81
2022/12/13 06:58:02;;;;;;;1.10;1.10;;;;;;;;;;5053416;28;20189;-80
2022/12/13 07:00:30;;;;;;;0.80;0.80;;;;;;;;;;5048282;28;20201;-82
2022/12/13 07:03:08;;;;;;;1.10;1.10;;;;;;;;;;5038894;28;20213;-81
2022/12/13 07:05:37;;;;;;;0.70;0.70;;;;;;;;;;5052387;28;20196;-80
2022/12/13 07:08:09;;;;;;;0.60;0.60;;;;;;;;;;5053260;28;20224;-82
2022/12/13 07:10:37;;;;;;;0.80;0.80;;;;;;;;;;5045324;28;20194;-81
2022/12/13 07:13:04;;;;;;;0.70;0.70;;;;;;;;;;5036742;28;20213;-80
2022/12/13 07:15:31;;;;;;;0.88;0.88;;;;;;;;;;5051464;28;20190;-79
2022/12/13 07:17:59;;;;;;;0.90;0.90;;;;;;;;;;5040472;28;20229;-79
2022/12/13 07:20:29;;;;;;;0.70;0.70;;;;;;;;;;5030952;28;20750;-80
2022/12/13 07:22:57;;;;;;;0.90;0.90;;;;;;;;;;5030362;28;20193;-80
2022/12/13 07:25:24;;;;;;;0.60;0.60;;;;;;;;;;5049313;28;20274;-80
2022/12/13 07:27:59;;;;;;;0.70;0.70;;;;;;;;;;5049710;28;20513;-79
2022/12/13 07:30:29;;;;;;;0.80;0.80;;;;;;;;;;5045573;28;20192;-80
2022/12/13 07:32:57;;;;;;;0.80;0.80;;;;;;;;;;5047075;28;20209;-79
2022/12/13 07:35:25;;;;;;;0.77;0.77;;;;;;;;;;5045379;28;20240;-80
2022/12/13 07:37:52;;;;;;;1.02;1.02;;;;;;;;;;5052365;28;20224;-78
2022/12/13 07:40:21;;;;;;;0.88;0.88;;;;;;;;;;5055257;28;20213;-78
2022/12/13 07:42:48;;;;;;;0.75;0.75;;;;;;;;;;5054908;28;20520;-80
2022/12/13 07:45:14;;;;;;;0.70;0.70;;;;;;;;;;5056219;28;20216;-79
2022/12/13 07:47:41;;;;;;;0.70;0.70;;;;;;;;;;5055764;28;20205;-79
2022/12/13 07:50:11;;;;;;;0.82;0.82;;;;;;;;;;5055322;28;20259;-79
2022/12/13 07:52:51;;;;;;;0.80;0.80;;;;;;;;;;5054105;28;20677;-80
2022/12/13 07:55:20;;;;;;;0.80;0.80;;;;;;;;;;5035104;28;20643;-80
2022/12/13 07:58:22;;;;;;;0.70;0.70;;;;;;;;;;5039660;28;20196;-80
2022/12/13 08:00:50;;;;;;;0.70;0.70;;;;;;;;;;5051217;28;20201;-78
2022/12/13 08:03:17;;;;;;;0.73;0.73;;;;;;;;;;5061919;28;20213;-80
2022/12/13 08:05:57;;;;;;;0.70;0.70;;;;;;;;;;5046349;28;20220;-80
2022/12/13 08:08:28;;;;;;;0.60;0.60;;;;;;;;;;5038429;28;20554;-78
2022/12/13 08:10:59;;;;;;;1.00;1.00;;;;;;;;;;5052940;28;20205;-80
2022/12/13 08:13:29;;;;;;;0.80;0.80;;;;;;;;;;5047223;28;20749;-79
2022/12/13 08:15:56;;;;;;;0.80;0.80;;;;;;;;;;5036590;28;20193;-80
2022/12/13 08:18:24;;;;;;;0.90;0.90;;;;;;;;;;5051896;28;20573;-79
2022/12/13 08:20:50;;;;;;;0.68;0.68;;;;;;;;;;5054321;28;20285;-79
2022/12/13 08:23:18;;;;;;;0.70;0.70;;;;;;;;;;5026897;28;20194;-79
2022/12/13 08:25:50;;;;;;;3.00;2.08;;;;;;;;;;5035115;28;20190;-78
2022/12/13 08:28:17;;;;;;;0.80;0.80;;;;;;;;;;5035701;28;20619;-79
2022/12/13 08:30:46;;;;;;;0.60;0.60;;;;;;;;;;5054365;28;20223;-79
2022/12/13 08:33:14;;;;;;;0.70;0.70;;;;;;;;;;5055199;28;20221;-78
2022/12/13 08:35:41;;;;;;;0.80;0.80;;;;;;;;;;5053011;28;20205;-78
2022/12/13 08:38:08;;;;;;;0.70;0.70;;;;;;;;;;5053259;28;20646;-79
2022/12/13 08:40:35;;;;;;;0.80;0.80;;;;;;;;;;5053947;28;20209;-79
2022/12/13 08:43:02;;;;;;;1.13;1.08;;;;;;;;;;5050969;28;20174;-80
2022/12/13 08:45:31;;;;;;;1.13;1.02;;;;;;;;;;5033362;28;20596;-78
2022/12/13 08:48:00;;;;;;;0.60;0.60;;;;;;;;;;5017411;28;20280;-79
2022/12/13 08:50:28;;;;;;;1.20;1.13;;;;;;;;;;5049900;28;20193;-79
2022/12/13 08:52:55;;;;;;;0.90;0.90;;;;;;;;;;5033983;28;20190;-79
2022/12/13 08:55:23;;;;;;;2.08;1.98;;;;;;;;;;5017073;28;20212;-79
2022/12/13 08:58:02;;;;;;;0.80;0.80;;;;;;;;;;5036332;28;20184;-80
2022/12/13 09:00:50;;;;;;;1.00;1.00;;;;;;;;;;5053840;28;20607;-80
2022/12/13 09:03:18;;;;;;;0.80;0.80;;;;;;;;;;5052994;28;20225;-80
2022/12/13 09:05:45;;;;;;;0.60;0.60;;;;;;;;;;5052842;28;20182;-80
2022/12/13 09:08:14;;;;;;;0.73;0.73;;;;;;;;;;5053336;28;20562;-80
2022/12/13 09:10:58;;;;;;;0.70;0.70;;;;;;;;;;5053899;28;20264;-78
2022/12/13 09:13:27;;;;;;;1.00;1.00;;;;;;;;;;5053593;28;20189;-81
2022/12/13 09:16:02;;;;;;;0.70;0.70;;;;;;;;;;5053004;28;20244;-80
2022/12/13 09:18:31;;;;;;;0.70;0.70;;;;;;;;;;5049847;28;20305;-81
2022/12/13 09:21:05;;;;;;;0.70;0.70;;;;;;;;;;5053090;28;20225;-79
2022/12/13 09:23:39;;;;;;;0.60;0.60;;;;;;;;;;5047150;28;20212;-79
2022/12/13 09:26:12;;;;;;;0.70;0.70;;;;;;;;;;5043507;28;20654;-79
2022/12/13 09:28:41;;;;;;;0.70;0.70;;;;;;;;;;5052231;28;20189;-79
2022/12/13 09:31:09;;;;;;;1.02;1.02;;;;;;;;;;5036618;28;20213;-79
2022/12/13 09:33:39;;;;;;;0.60;0.50;;;;;;;;;;5046152;28;20214;-80
2022/12/13 09:36:09;;;;;;;0.70;0.70;;;;;;;;;;5041066;28;20637;-79
2022/12/13 09:38:39;;;;;;;0.98;0.98;;;;;;;;;;5036554;28;20186;-79
2022/12/13 09:41:18;;;;;;;0.70;0.70;;;;;;;;;;5052572;28;20654;-79
2022/12/13 09:43:56;;;;;;;0.90;0.90;;;;;;;;;;5053546;28;20631;-78
2022/12/13 09:46:29;;;;;;;0.73;0.73;;;;;;;;;;5038927;28;20206;-79
2022/12/13 09:49:15;;;;;;;0.70;0.68;;;;;;;;;;5033694;28;20233;-78
2022/12/13 09:51:51;;;;;;;6.00;2.17;;;;;;;;;;5032819;28;20193;-79
2022/12/13 09:54:37;;;;;;;0.68;0.68;;;;;;;;;;5036156;28;20206;-79
2022/12/13 09:57:15;;;;;;;0.80;0.80;;;;;;;;;;5032631;28;20197;-78
2022/12/13 10:00:00;;;;;;;0.93;0.93;;;;;;;;;;5052352;28;20248;-78
2022/12/13 10:02:38;;;;;;;0.80;0.80;;;;;;;;;;5052487;28;20205;-76
2022/12/13 10:05:13;;;;;;;0.80;0.80;;;;;;;;;;5051725;28;20289;-78
2022/12/13 10:07:52;;;;;;;0.68;0.65;;;;;;;;;;5037299;28;20272;-79
2022/12/13 10:10:20;;;;;;;0.60;0.60;;;;;;;;;;5053996;28;20181;-77
2022/12/13 10:12:49;;;;;;;0.70;0.70;;;;;;;;;;5052526;28;20209;-78
2022/12/13 10:15:18;;;;;;;0.60;0.60;;;;;;;;;;5052587;28;20236;-77
2022/12/13 10:17:49;;;;;;;0.77;0.77;;;;;;;;;;5052044;28;20252;-79
2022/12/13 10:20:24;;;;;;;0.60;0.60;;;;;;;;;;5049074;28;20290;-78
2022/12/13 10:22:52;;;;;;;0.70;0.70;;;;;;;;;;5031967;28;20206;-78
2022/12/13 10:25:44;;;;;;;0.70;0.70;;;;;;;;;;5052699;28;20192;-78
2022/12/13 10:28:11;;;;;;;0.65;0.60;;;;;;;;;;5050671;28;20288;-78
2022/12/13 10:30:39;;;;;;;1.55;1.45;;;;;;;;;;5032284;28;20290;-78
2022/12/13 10:33:17;;;;;;;0.70;0.70;;;;;;;;;;5036212;28;20214;-79
2022/12/13 10:36:05;;;;;;;1.40;1.30;;;;;;;;;;5047914;28;20189;-78
2022/12/13 10:38:37;;;;;;;0.70;0.70;;;;;;;;;;5045874;28;20194;-78
2022/12/13 10:41:24;;;;;;;0.70;0.70;;;;;;;;;;5018578;28;20225;-78
2022/12/13 10:44:05;;;;;;;0.70;0.60;;;;;;;;;;5037194;28;20638;-80
2022/12/13 10:46:34;;;;;;;0.60;0.60;;;;;;;;;;5051869;28;20227;-80
2022/12/13 10:49:14;;;;;;;0.70;0.70;;;;;;;;;;5052000;28;20693;-79
2022/12/13 10:51:44;;;;;;;0.80;0.80;;;;;;;;;;5049582;28;20565;-79
2022/12/13 10:54:15;;;;;;;0.80;0.80;;;;;;;;;;5044981;28;20693;-79
2022/12/13 10:56:44;;;;;;;0.60;0.60;;;;;;;;;;5051575;28;20235;-81
2022/12/13 10:59:23;;;;;;;0.70;0.70;;;;;;;;;;5052472;28;20197;-79
2022/12/13 11:01:49;;;;;;;0.73;0.73;;;;;;;;;;5051554;28;20676;-80
2022/12/13 11:04:22;;;;;;;0.80;0.80;;;;;;;;;;5044689;28;20218;-83
2022/12/13 11:06:56;;;;;;;0.70;0.70;;;;;;;;;;5035923;28;20194;-82
2022/12/13 11:09:25;;;;;;;0.70;0.70;;;;;;;;;;5045624;28;20200;-84
2022/12/13 11:11:53;;;;;;;0.60;0.60;;;;;;;;;;5050100;28;20190;-83
2022/12/13 11:14:28;;;;;;;0.70;0.70;;;;;;;;;;5052628;28;20194;-85
2022/12/13 11:17:04;;;;;;;0.70;0.70;;;;;;;;;;5044223;28;20197;-86
2022/12/13 11:19:34;;;;;;;3.78;1.90;;;;;;;;;;5032551;28;20256;-84
2022/12/13 11:22:02;;;;;;;0.80;0.80;;;;;;;;;;5051262;28;20224;-84
2022/12/13 11:24:35;;;;;;;0.70;0.70;;;;;;;;;;5034842;28;20193;-85
2022/12/13 11:27:08;;;;;;;0.80;0.80;;;;;;;;;;5042459;28;20200;-83
2022/12/13 11:29:43;;;;;;;0.70;0.70;;;;;;;;;;5032701;28;20221;-80
2022/12/13 11:32:15;;;;;;;0.70;0.60;;;;;;;;;;5032539;28;20192;-80
2022/12/13 11:34:53;;;;;;;0.80;0.80;;;;;;;;;;5048943;28;20205;-82
2022/12/13 11:37:24;;;;;;;0.70;0.70;;;;;;;;;;5033785;28;20681;-82
2022/12/13 11:39:55;;;;;;;0.70;0.70;;;;;;;;;;5052335;28;20211;-82
2022/12/13 11:42:30;;;;;;;0.70;0.70;;;;;;;;;;5052311;28;20393;-80
2022/12/13 11:44:59;;;;;;;0.70;0.60;;;;;;;;;;5050725;28;20609;-84
2022/12/13 11:47:29;;;;;;;0.80;0.80;;;;;;;;;;5047285;28;20292;-83
2022/12/13 11:49:57;;;;;;;0.70;0.60;;;;;;;;;;5049699;28;20245;-83
2022/12/13 11:52:26;;;;;;;0.68;0.65;;;;;;;;;;5051075;28;20194;-85
2022/12/13 11:54:57;;;;;;;0.70;0.70;;;;;;;;;;5024096;28;20263;-84
2022/12/13 11:57:30;;;;;;;0.70;0.70;;;;;;;;;;5016797;28;20190;-85
2022/12/13 12:00:00;;;;;;;1.10;1.08;;;;;;;;;;5031049;28;20186;-85
2022/12/13 12:02:32;;;;;;;1.38;1.20;;;;;;;;;;5045077;28;20247;-87
2022/12/13 12:05:04;;;;;;;0.77;0.77;;;;;;;;;;5051659;28;20189;-86
2022/12/13 12:07:35;;;;;;;0.70;0.70;;;;;;;;;;5052561;28;20209;-86
2022/12/13 12:10:10;;;;;;;0.70;0.70;;;;;;;;;;5051873;28;20194;-87
2022/12/13 12:12:40;;;;;;;0.70;0.70;;;;;;;;;;5051492;28;20212;-86
2022/12/13 12:15:11;;;;;;;1.20;1.10;;;;;;;;;;5033813;28;20209;-87
2022/12/13 12:17:42;;;;;;;0.70;0.70;;;;;;;;;;5037826;28;20581;-86
2022/12/13 12:20:12;;;;;;;0.70;0.70;;;;;;;;;;5056228;28;20194;-84
2022/12/13 12:22:53;;;;;;;0.70;0.70;;;;;;;;;;5056277;28;20202;-85
2022/12/13 12:25:26;;;;;;;0.70;0.70;;;;;;;;;;5034519;28;20263;-83
2022/12/13 12:27:56;;;;;;;0.70;0.70;;;;;;;;;;5036317;28;20175;-84
2022/12/13 12:30:26;;;;;;;0.80;0.80;;;;;;;;;;5040867;28;20197;-84
2022/12/13 12:32:56;;;;;;;0.70;0.70;;;;;;;;;;5055999;28;20209;-84
2022/12/13 12:35:38;;;;;;;0.70;0.70;;;;;;;;;;5024486;28;20277;-83
2022/12/13 12:38:20;;;;;;;1.00;1.00;;;;;;;;;;5019038;28;20208;-84
2022/12/13 12:40:59;;;;;;;2.10;1.42;;;;;;;;;;5035831;28;20190;-83
2022/12/13 12:43:50;;;;;;;0.80;0.80;;;;;;;;;;5039285;28;20198;-82
2022/12/13 12:46:36;;;;;;;0.80;0.80;;;;;;;;;;5034655;28;20465;-83
2022/12/13 12:49:52;;;;;;;0.80;0.80;;;;;;;;;;5036454;28;20268;-83
2022/12/13 12:52:25;;;;;;;0.80;0.80;;;;;;;;;;5039354;28;20207;-83
2022/12/13 12:55:02;;;;;;;0.80;0.73;;;;;;;;;;5043281;28;20213;-85
2022/12/13 12:57:32;;;;;;;0.80;0.80;;;;;;;;;;5055302;28;20201;-84
2022/12/13 13:00:03;;;;;;;0.80;0.80;;;;;;;;;;5042333;28;20186;-84
2022/12/13 13:02:35;;;;;;;0.60;0.60;;;;;;;;;;5033916;28;20218;-83
2022/12/13 13:05:08;;;;;;;0.70;0.70;;;;;;;;;;5042865;28;20182;-83
2022/12/13 13:07:37;;;;;;;0.70;0.65;;;;;;;;;;5036973;28;20212;-81
2022/12/13 13:10:07;;;;;;;0.70;0.70;;;;;;;;;;5039695;28;20194;-82
2022/12/13 13:12:52;;;;;;;0.70;0.60;;;;;;;;;;5035180;28;20182;-83
2022/12/13 13:16:01;;;;;;;0.70;0.70;;;;;;;;;;5035114;28;20218;-82
2022/12/13 13:18:52;;;;;;;1.70;1.50;;;;;;;;;;5033702;28;20256;-82
2022/12/13 13:21:26;;;;;;;0.70;0.70;;;;;;;;;;5053659;28;20188;-83
2022/12/13 13:24:22;;;;;;;0.70;0.70;;;;;;;;;;5053425;28;20223;-82
2022/12/13 13:26:50;;;;;;;0.70;0.70;;;;;;;;;;5007418;28;20331;-84
2022/12/13 13:29:29;;;;;;;0.70;0.70;;;;;;;;;;5053620;28;20566;-83
2022/12/13 13:31:57;;;;;;;0.70;0.70;;;;;;;;;;5054867;28;20184;-83
2022/12/13 13:34:36;;;;;;;0.70;0.70;;;;;;;;;;5053158;28;20257;-81
2022/12/13 13:37:04;;;;;;;0.70;0.70;;;;;;;;;;5052635;28;20201;-81
2022/12/13 13:39:49;;;;;;;0.70;0.70;;;;;;;;;;5054353;28;20198;-83
2022/12/13 13:42:18;;;;;;;0.70;0.68;;;;;;;;;;5053262;28;20550;-81
2022/12/13 13:44:59;;;;;;;0.70;0.70;;;;;;;;;;5053201;28;20259;-80
2022/12/13 13:47:33;;;;;;;0.70;0.70;;;;;;;;;;5052379;28;20214;-80
2022/12/13 13:50:11;;;;;;;1.23;1.13;;;;;;;;;;5051734;28;20213;-82
2022/12/13 13:52:49;;;;;;;0.70;0.60;;;;;;;;;;5053180;28;20228;-82
2022/12/13 13:55:24;;;;;;;0.90;0.90;;;;;;;;;;5036440;28;20335;-80
2022/12/13 13:58:14;;;;;;;0.70;0.70;;;;;;;;;;5054575;28;20664;-83
2022/12/13 14:01:04;;;;;;;0.70;0.70;;;;;;;;;;5052281;28;20186;-82
2022/12/13 14:03:58;;;;;;;0.85;0.85;;;;;;;;;;5033706;28;20218;-82
2022/12/13 14:06:37;;;;;;;0.70;0.65;;;;;;;;;;5053004;28;20197;-82
2022/12/13 14:09:27;;;;;;;0.70;0.70;;;;;;;;;;5050856;28;20189;-83
2022/12/13 14:12:24;;;;;;;0.75;0.70;;;;;;;;;;5021544;28;20202;-83
2022/12/13 14:15:11;;;;;;;0.80;0.80;;;;;;;;;;5037091;28;20208;-83
2022/12/13 14:17:54;;;;;;;0.70;0.60;;;;;;;;;;5039467;28;20614;-82
2022/12/13 14:20:40;;;;;;;0.75;0.73;;;;;;;;;;5043128;28;20292;-82
2022/12/13 14:23:14;;;;;;;0.70;0.68;;;;;;;;;;5036408;28;20197;-83
2022/12/13 14:26:02;;;;;;;0.70;0.70;;;;;;;;;;5049002;28;20210;-83
2022/12/13 14:28:33;;;;;;;0.70;0.70;;;;;;;;;;5057587;28;20654;-83
2022/12/13 14:31:00;;;;;;;0.70;0.60;;;;;;;;;;5035445;28;20210;-83
2022/12/13 14:33:30;;;;;;;0.70;0.68;;;;;;;;;;5040695;28;20218;-83
2022/12/13 14:35:57;;;;;;;0.70;0.60;;;;;;;;;;5048752;28;20213;-82
2022/12/13 14:38:30;;;;;;;0.70;0.70;;;;;;;;;;5033644;28;20190;-83
2022/12/13 14:41:01;;;;;;;0.70;0.60;;;;;;;;;;5034061;28;20252;-81
2022/12/13 14:43:32;;;;;;;0.70;0.70;;;;;;;;;;5031266;28;20194;-84
2022/12/13 14:46:05;;;;;;;0.80;0.77;;;;;;;;;;5028271;28;20196;-83
2022/12/13 14:48:35;;;;;;;0.70;0.70;;;;;;;;;;5035589;28;20237;-83
2022/12/13 14:51:03;;;;;;;0.70;0.70;;;;;;;;;;5032115;28;20627;-83
2022/12/13 14:53:36;;;;;;;0.70;0.60;;;;;;;;;;5025667;28;20201;-81
2022/12/13 14:56:04;;;;;;;0.70;0.70;;;;;;;;;;5034466;28;20233;-84
2022/12/13 14:58:31;;;;;;;0.80;0.80;;;;;;;;;;5051175;28;20189;-84
2022/12/13 15:00:58;;;;;;;1.23;1.15;;;;;;;;;;5033796;28;20213;-83
2022/12/13 15:03:26;;;;;;;0.70;0.70;;;;;;;;;;5032391;28;20244;-81
2022/12/13 15:05:55;;;;;;;0.70;0.70;;;;;;;;;;5046227;28;20190;-83
2022/12/13 15:08:23;;;;;;;0.70;0.70;;;;;;;;;;5050765;28;20272;-83
2022/12/13 15:10:52;;;;;;;0.70;0.70;;;;;;;;;;5045501;28;20286;-83
2022/12/13 15:13:23;;;;;;;0.80;0.80;;;;;;;;;;5031730;28;20534;-83
2022/12/13 15:15:59;;;;;;;0.70;0.60;;;;;;;;;;5035286;28;20244;-85
2022/12/13 15:19:03;;;;;;;0.70;0.70;;;;;;;;;;5032959;28;20216;-83
2022/12/13 15:21:36;;;;;;;0.70;0.70;;;;;;;;;;5020260;28;20232;-83
2022/12/13 15:24:10;;;;;;;0.70;0.70;;;;;;;;;;5031883;28;20178;-82